Time;durP1;ratioP1;P1;durP2;ratioP2;P2;SDS_P1;SDS_P2;PMS_P1;PMS_P2;Temp;Humidity;BMP_temperature;BMP_pressure;BME280_temperature;BME280_humidity;BME280_pressure;Samples;Min_cycle;Max_cycle;Signal;HPM_P1;HPM_P2
2022/04/25 00:02:13;;;;;;;;;;;;;;;13.23;62.78;94544.38;4976714;28;1004;-48
2022/04/25 00:04:39;;;;;;;;;;;;;;;13.24;63.04;94546.06;4976600;28;1050;-48
2022/04/25 00:07:05;;;;;;;;;;;;;;;13.30;62.99;94547.19;4976453;28;1930;-48
2022/04/25 00:09:31;;;;;;;;;;;;;;;13.34;63.13;94553.81;4975432;28;1099;-48
2022/04/25 00:11:57;;;;;;;;;;;;;;;13.41;63.20;94548.50;4976630;28;993;-48
2022/04/25 00:14:23;;;;;;;;;;;;;;;13.32;62.91;94552.34;4976131;28;1053;-48
2022/04/25 00:16:55;;;;;;;;;;;;;;;13.26;63.43;94553.91;4976268;28;1111;-48
2022/04/25 00:19:22;;;;;;;;;;;;;;;13.23;63.46;94551.63;4976184;28;940;-48
2022/04/25 00:21:48;;;;;;;;;;;;;;;13.01;63.65;94554.31;4976549;28;965;-48
2022/04/25 00:24:14;;;;;;;;;;;;;;;12.95;64.21;94559.59;4975936;28;969;-48
2022/04/25 00:26:40;;;;;;;;;;;;;;;12.88;64.17;94546.94;4961509;28;1911;-48
2022/04/25 00:29:06;;;;;;;;;;;;;;;12.89;64.24;94553.97;4956882;29;1009;-48
2022/04/25 00:31:32;;;;;;;;;;;;;;;13.03;64.08;94549.59;4955492;29;1854;-48
2022/04/25 00:33:58;;;;;;;;;;;;;;;12.98;63.88;94553.84;4956457;29;1092;-48
2022/04/25 00:36:25;;;;;;;;;;;;;;;12.95;64.35;94552.38;4956518;29;1092;-48
2022/04/25 00:38:51;;;;;;;;;;;;;;;12.90;64.32;94552.13;4956409;28;1009;-48
2022/04/25 00:41:18;;;;;;;;;;;;;;;12.78;64.37;94542.91;4956655;29;1046;-48
2022/04/25 00:43:44;;;;;;;;;;;;;;;12.75;64.79;94535.22;4956664;28;1251;-48
2022/04/25 00:46:23;;;;;;;;;;;;;;;12.95;64.70;94546.19;4956419;29;1997;-48
2022/04/25 00:48:49;;;;;;;;;;;;;;;12.97;64.79;94544.94;4956167;28;995;-48
2022/04/25 00:51:16;;;;;;;;;;;;;;;12.95;64.81;94543.50;4956603;29;1030;-48
2022/04/25 00:53:46;;;;;;;;;;;;;;;12.88;65.13;94544.25;4956095;28;1038;-48
2022/04/25 00:56:16;;;;;;;;;;;;;;;12.65;65.75;94536.38;4956426;28;966;-48
2022/04/25 00:58:45;;;;;;;;;;;;;;;12.63;65.63;94532.22;4956226;28;1066;-48
2022/04/25 01:01:13;;;;;;;;;;;;;;;12.52;66.28;94521.97;4956193;28;1013;-48
2022/04/25 01:03:39;;;;;;;;;;;;;;;12.57;66.25;94531.09;4955957;28;1103;-48
2022/04/25 01:06:05;;;;;;;;;;;;;;;12.58;66.17;94530.09;4955995;28;1997;-48
2022/04/25 01:08:37;;;;;;;;;;;;;;;12.66;66.06;94531.84;4956168;28;1047;-48
2022/04/25 01:11:04;;;;;;;;;;;;;;;12.72;65.69;94524.88;4956280;28;1034;-48
2022/04/25 01:13:31;;;;;;;;;;;;;;;12.64;65.60;94523.16;4955878;28;1074;-48
2022/04/25 01:15:57;;;;;;;;;;;;;;;12.70;65.82;94531.25;4956221;28;1123;-48
2022/04/25 01:18:23;;;;;;;;;;;;;;;12.69;66.51;94532.28;4955499;28;1126;-48
2022/04/25 01:20:52;;;;;;;;;;;;;;;12.68;66.38;94527.94;4955742;28;1021;-48
2022/04/25 01:28:50;;;;;;;;;;;;;;;12.12;67.35;94514.25;4974922;28;1053;-48
2022/04/25 01:31:16;;;;;;;;;;;;;;;12.32;66.94;94509.16;4975293;28;1038;-48
2022/04/25 01:33:42;;;;;;;;;;;;;;;12.37;67.29;94495.19;4975023;28;1057;-48
2022/04/25 01:36:08;;;;;;;;;;;;;;;12.26;67.16;94486.63;4975199;28;1057;-48
2022/04/25 01:38:34;;;;;;;;;;;;;;;12.31;67.15;94480.69;4974696;28;1049;-48
2022/04/25 01:41:00;;;;;;;;;;;;;;;12.33;67.62;94480.50;4975211;28;961;-48
2022/04/25 01:43:26;;;;;;;;;;;;;;;12.35;67.75;94495.41;4974795;28;975;-48
2022/04/25 01:45:52;;;;;;;;;;;;;;;12.44;67.37;94504.13;4974778;28;1930;-48
2022/04/25 01:48:18;;;;;;;;;;;;;;;12.39;67.34;94519.97;4974841;28;975;-48
2022/04/25 01:50:44;;;;;;;;;;;;;;;12.25;66.97;94513.59;4974774;28;980;-48
2022/04/25 01:53:11;;;;;;;;;;;;;;;12.27;66.99;94516.91;4974709;28;1103;-48
2022/04/25 01:55:37;;;;;;;;;;;;;;;12.25;67.18;94511.75;4974578;28;1031;-48
2022/04/25 01:58:03;;;;;;;;;;;;;;;12.22;67.24;94519.34;4974710;28;1020;-48
2022/04/25 02:00:29;;;;;;;;;;;;;;;12.30;67.20;94520.06;4974364;28;1071;-48
2022/04/25 02:02:55;;;;;;;;;;;;;;;12.22;65.54;94514.81;4974610;28;1072;-48
2022/04/25 02:05:21;;;;;;;;;;;;;;;11.76;67.97;94514.13;4974309;28;1898;-48
2022/04/25 02:07:47;;;;;;;;;;;;;;;11.56;68.35;94501.31;4974617;28;1103;-48
2022/04/25 02:10:13;;;;;;;;;;;;;;;11.67;68.83;94506.22;4974412;28;1025;-48
2022/04/25 02:12:39;;;;;;;;;;;;;;;11.86;68.73;94515.53;4974527;28;989;-48
2022/04/25 02:15:12;;;;;;;;;;;;;;;11.97;68.56;94513.44;4974329;28;1005;-48
2022/04/25 02:17:38;;;;;;;;;;;;;;;11.85;68.45;94523.75;4974320;28;1033;-48
2022/04/25 02:20:05;;;;;;;;;;;;;;;11.86;68.33;94518.22;4974704;28;1030;-48
2022/04/25 02:22:34;;;;;;;;;;;;;;;11.85;68.44;94513.88;4974567;28;1252;-48
2022/04/25 02:25:01;;;;;;;;;;;;;;;11.96;68.17;94514.47;4973127;28;1179;-48
2022/04/25 02:27:27;;;;;;;;;;;;;;;11.94;68.49;94516.50;4954822;28;1911;-48
2022/04/25 02:29:58;;;;;;;;;;;;;;;11.72;68.01;94511.84;4955220;28;1050;-48
2022/04/25 02:32:24;;;;;;;;;;;;;;;11.50;68.86;94499.34;4955373;28;970;-48
2022/04/25 02:34:50;;;;;;;;;;;;;;;11.30;69.60;94494.50;4958863;28;1043;-48
2022/04/25 02:37:17;;;;;;;;;;;;;;;11.26;69.78;94477.16;4959093;28;1053;-48
2022/04/25 02:39:43;;;;;;;;;;;;;;;11.40;69.77;94486.25;4957739;29;1034;-48
2022/04/25 02:42:10;;;;;;;;;;;;;;;11.56;68.86;94473.69;4958656;29;1081;-48
2022/04/25 02:44:36;;;;;;;;;;;;;;;11.36;68.98;94468.03;4958514;28;1021;-48
2022/04/25 02:47:02;;;;;;;;;;;;;;;11.16;69.87;94454.38;4958721;29;1959;-48
2022/04/25 02:49:28;;;;;;;;;;;;;;;11.25;70.08;94448.75;4958614;28;1012;-48
2022/04/25 02:51:54;;;;;;;;;;;;;;;11.36;70.03;94455.47;4958368;29;1033;-48
2022/04/25 02:54:20;;;;;;;;;;;;;;;11.53;69.58;94451.63;4958389;29;1026;-48
2022/04/25 02:56:47;;;;;;;;;;;;;;;11.56;68.68;94449.59;4958282;29;997;-48
2022/04/25 02:59:14;;;;;;;;;;;;;;;11.38;69.07;94460.66;4958676;28;1073;-48
2022/04/25 03:01:40;;;;;;;;;;;;;;;11.20;69.78;94450.31;4958331;28;1046;-48
2022/04/25 03:04:06;;;;;;;;;;;;;;;11.29;70.00;94454.56;4958468;28;966;-48
2022/04/25 03:06:32;;;;;;;;;;;;;;;11.35;69.75;94463.72;4957985;28;1914;-48
2022/04/25 03:08:58;;;;;;;;;;;;;;;11.33;70.12;94469.25;4958261;28;1111;-48
2022/04/25 03:11:27;;;;;;;;;;;;;;;11.33;70.34;94472.75;4957906;29;1046;-48
2022/04/25 03:13:53;;;;;;;;;;;;;;;11.33;70.44;94485.31;4958137;29;1025;-48
2022/04/25 03:16:19;;;;;;;;;;;;;;;11.22;69.98;94491.09;4958095;28;1047;-48
2022/04/25 03:18:46;;;;;;;;;;;;;;;11.02;70.58;94491.59;4958021;29;1035;-48
2022/04/25 03:21:13;;;;;;;;;;;;;;;11.05;70.52;94498.44;4957996;28;1019;-47
2022/04/25 03:23:39;;;;;;;;;;;;;;;11.05;70.18;94501.94;4957980;28;958;-48
2022/04/25 03:26:06;;;;;;;;;;;;;;;11.09;70.05;94502.41;4967196;28;1914;-48
2022/04/25 03:28:32;;;;;;;;;;;;;;;10.89;70.27;94496.72;4977161;28;1083;-48
2022/04/25 03:30:58;;;;;;;;;;;;;;;10.63;71.69;94497.91;4972164;28;1738;-47
2022/04/25 03:33:24;;;;;;;;;;;;;;;10.70;72.46;94488.16;4957960;28;1075;-48
2022/04/25 03:35:51;;;;;;;;;;;;;;;10.96;71.61;94488.81;4957354;28;1038;-47
2022/04/25 03:38:18;;;;;;;;;;;;;;;11.07;71.43;94494.53;4957329;29;1001;-48
2022/04/25 03:40:44;;;;;;;;;;;;;;;11.08;71.30;94490.88;4957195;28;1058;-48
2022/04/25 03:43:10;;;;;;;;;;;;;;;11.10;70.59;94491.53;4957352;28;1024;-48
2022/04/25 03:45:37;;;;;;;;;;;;;;;11.20;70.62;94487.78;4955615;28;2005;-48
2022/04/25 03:48:03;;;;;;;;;;;;;;;11.11;70.33;94492.34;4956123;29;1073;-48
2022/04/25 03:50:31;;;;;;;;;;;;;;;11.05;70.68;94491.22;4957592;28;1275;-48
2022/04/25 03:52:57;;;;;;;;;;;;;;;11.06;71.18;94489.38;4957683;28;977;-48
2022/04/25 03:58:11;;;;;;;;;;;;;;;11.07;71.10;94491.06;4957642;29;1046;-49
2022/04/25 04:00:38;;;;;;;;;;;;;;;11.07;70.67;94493.72;4957424;28;1016;-48
2022/04/25 04:03:04;;;;;;;;;;;;;;;10.94;71.35;94497.00;4957177;28;1017;-48
2022/04/25 04:05:30;;;;;;;;;;;;;;;11.00;71.36;94506.97;4957163;28;1939;-47
2022/04/25 04:07:56;;;;;;;;;;;;;;;11.16;71.11;94507.88;4956974;28;1070;-47
2022/04/25 04:10:22;;;;;;;;;;;;;;;11.32;70.74;94507.72;4957224;29;1061;-52
2022/04/25 04:12:48;;;;;;;;;;;;;;;11.38;70.38;94506.16;4957203;28;1032;-47
2022/04/25 04:15:15;;;;;;;;;;;;;;;11.34;70.85;94513.72;4957353;28;967;-47
2022/04/25 04:17:42;;;;;;;;;;;;;;;11.49;70.45;94519.09;4956580;28;1550;-47
2022/04/25 04:20:09;;;;;;;;;;;;;;;11.54;68.98;94530.09;4957002;28;1092;-48
2022/04/25 04:22:36;;;;;;;;;;;;;;;11.40;70.04;94521.03;4956938;28;1032;-48
2022/04/25 04:25:04;;;;;;;;;;;;;;;11.62;69.99;94521.97;4958164;28;1349;-48
2022/04/25 04:27:31;;;;;;;;;;;;;;;11.70;69.98;94521.06;4975664;28;1903;-48
2022/04/25 04:29:58;;;;;;;;;;;;;;;11.75;69.72;94529.38;4976300;28;1024;-48
2022/04/25 04:32:29;;;;;;;;;;;;;;;12.12;69.56;94522.28;4976114;28;1046;-48
2022/04/25 04:34:55;;;;;;;;;;;;;;;12.55;67.25;94524.28;4959782;28;1151;-47
2022/04/25 04:37:22;;;;;;;;;;;;;;;13.05;66.29;94526.06;4955003;28;1216;-48
2022/04/25 04:39:48;;;;;;;;;;;;;;;13.55;65.24;94533.34;4952747;28;1131;-47
2022/04/25 04:42:14;;;;;;;;;;;;;;;13.90;64.02;94544.94;4955790;28;1008;-48
2022/04/25 04:44:41;;;;;;;;;;;;;;;14.06;62.93;94554.59;4956306;28;1038;-48
2022/04/25 04:47:07;;;;;;;;;;;;;;;14.09;63.13;94564.09;4955594;28;1907;-48
2022/04/25 04:49:33;;;;;;;;;;;;;;;14.08;62.77;94565.16;4955059;28;1009;-48
2022/04/25 04:51:59;;;;;;;;;;;;;;;14.20;62.37;94569.75;4956419;28;988;-48
2022/04/25 04:54:25;;;;;;;;;;;;;;;14.13;62.42;94570.75;4956473;28;1026;-48
2022/04/25 04:56:52;;;;;;;;;;;;;;;14.23;62.77;94566.69;4955554;28;1138;-47
2022/04/25 04:59:18;;;;;;;;;;;;;;;14.37;62.33;94564.88;4956354;28;997;-48
2022/04/25 05:01:44;;;;;;;;;;;;;;;14.39;62.29;94564.69;4956090;28;1001;-48
2022/04/25 05:04:10;;;;;;;;;;;;;;;14.67;61.39;94561.13;4962755;28;1304;-48
2022/04/25 05:06:36;;;;;;;;;;;;;;;15.08;59.84;94562.91;4964680;28;1906;-48
2022/04/25 05:09:02;;;;;;;;;;;;;;;15.51;58.83;94557.19;4955966;28;1016;-48
2022/04/25 05:11:30;;;;;;;;;;;;;;;15.53;58.50;94555.13;4955944;29;1089;-48
2022/04/25 05:13:56;;;;;;;;;;;;;;;16.20;56.85;94564.03;4955835;28;1091;-48
2022/04/25 05:16:23;;;;;;;;;;;;;;;16.85;55.05;94564.09;4956216;28;1265;-48
2022/04/25 05:18:49;;;;;;;;;;;;;;;17.28;54.15;94568.88;4955897;29;996;-48
2022/04/25 05:21:15;;;;;;;;;;;;;;;17.72;53.04;94564.41;4955896;29;2010;-49
2022/04/25 05:23:42;;;;;;;;;;;;;;;17.80;53.47;94574.13;4955927;29;1111;-48
2022/04/25 05:26:08;;;;;;;;;;;;;;;18.03;52.44;94564.59;4965802;28;1911;-54
2022/04/25 05:28:34;;;;;;;;;;;;;;;18.23;52.04;94570.66;4974931;28;985;-48
2022/04/25 05:31:00;;;;;;;;;;;;;;;18.16;52.61;94580.72;4975064;28;1023;-48
2022/04/25 05:33:27;;;;;;;;;;;;;;;18.18;52.92;94577.78;4975055;28;1015;-48
2022/04/25 05:35:53;;;;;;;;;;;;;;;18.05;51.71;94579.56;4975194;28;1046;-48
2022/04/25 05:38:19;;;;;;;;;;;;;;;17.76;53.14;94581.03;4975012;28;988;-48
2022/04/25 05:40:48;;;;;;;;;;;;;;;17.72;52.55;94566.28;4975024;28;966;-48
2022/04/25 05:43:14;;;;;;;;;;;;;;;17.55;52.67;94579.50;4974654;28;1057;-49
2022/04/25 05:45:43;;;;;;;;;;;;;;;17.46;54.64;94575.41;4974043;28;1911;-48
2022/04/25 05:53:39;;;;;;;;;;;;;;;17.81;53.82;94566.81;4974819;28;1271;-48
2022/04/25 05:56:05;;;;;;;;;;;;;;;17.87;53.40;94569.53;4974987;28;997;-47
2022/04/25 05:58:31;;;;;;;;;;;;;;;18.03;53.85;94580.84;4971378;28;1453;-47
2022/04/25 06:00:57;;;;;;;;;;;;;;;18.09;53.81;94575.34;4957362;28;1337;-47
2022/04/25 06:03:23;;;;;;;;;;;;;;;18.08;53.22;94579.13;4955039;28;927;-48
2022/04/25 06:05:49;;;;;;;;;;;;;;;18.00;53.09;94573.97;4955504;28;1918;-48
2022/04/25 06:11:37;;;;;;;;;;;;;;;18.52;52.20;94579.94;4959080;28;1054;-48
2022/04/25 06:14:03;;;;;;;;;;;;;;;18.50;51.15;94576.63;4959068;28;1037;-48
2022/04/25 06:16:29;;;;;;;;;;;;;;;18.54;50.83;94575.13;4959310;28;965;-48
2022/04/25 06:18:56;;;;;;;;;;;;;;;18.62;51.76;94575.88;4958744;28;1234;-48
2022/04/25 06:21:22;;;;;;;;;;;;;;;18.93;50.34;94561.38;4959233;28;1322;-48
2022/04/25 06:23:48;;;;;;;;;;;;;;;19.20;49.54;94561.88;4958880;28;943;-48
2022/04/25 06:26:14;;;;;;;;;;;;;;;19.75;50.45;94563.63;4969754;28;1989;-48
2022/04/25 06:28:41;;;;;;;;;;;;;;;19.96;47.06;94567.66;4978179;28;967;-48
2022/04/25 06:31:07;;;;;;;;;;;;;;;20.34;49.36;94563.69;4978216;28;1231;-48
2022/04/25 06:33:33;;;;;;;;;;;;;;;20.82;47.39;94568.03;4977923;28;1033;-48
2022/04/25 06:36:00;;;;;;;;;;;;;;;21.12;46.81;94568.91;4978095;28;1089;-48
2022/04/25 06:38:26;;;;;;;;;;;;;;;21.45;45.65;94565.50;4977785;28;1033;-48
2022/04/25 06:40:52;;;;;;;;;;;;;;;21.60;44.50;94562.25;4978114;28;1005;-48
2022/04/25 06:43:18;;;;;;;;;;;;;;;21.80;45.42;94564.53;4978110;28;1028;-49
2022/04/25 06:45:44;;;;;;;;;;;;;;;22.20;44.47;94558.09;4977948;28;1907;-48
2022/04/25 06:48:10;;;;;;;;;;;;;;;22.71;44.08;94558.88;4977685;28;1041;-48
2022/04/25 06:50:36;;;;;;;;;;;;;;;22.96;43.53;94555.66;4977603;28;1947;-48
2022/04/25 06:53:03;;;;;;;;;;;;;;;23.14;43.76;94551.81;4977662;28;993;-50
2022/04/25 06:55:29;;;;;;;;;;;;;;;23.19;42.15;94551.88;4977409;28;809;-50
2022/04/25 06:57:55;;;;;;;;;;;;;;;23.41;40.67;94544.75;4977951;28;955;-48
2022/04/25 07:00:22;;;;;;;;;;;;;;;23.67;40.75;94549.41;4972633;28;1746;-49
2022/04/25 07:02:49;;;;;;;;;;;;;;;24.04;40.29;94553.34;4958279;28;1041;-49
2022/04/25 07:05:15;;;;;;;;;;;;;;;24.11;40.56;94565.69;4958344;28;1025;-49
2022/04/25 07:07:42;;;;;;;;;;;;;;;24.13;41.53;94563.53;4957936;29;1997;-48
2022/04/25 07:10:08;;;;;;;;;;;;;;;24.19;40.81;94556.19;4958290;28;1030;-48
2022/04/25 07:12:35;;;;;;;;;;;;;;;24.26;40.06;94561.44;4957924;29;1088;-50
2022/04/25 07:15:01;;;;;;;;;;;;;;;24.23;39.62;94556.50;4958127;28;1007;-48
2022/04/25 07:17:28;;;;;;;;;;;;;;;24.24;40.35;94564.41;4957784;29;1981;-48
2022/04/25 07:19:55;;;;;;;;;;;;;;;24.56;40.57;94566.31;4957483;28;1286;-48
2022/04/25 07:30:35;;;;;;;;;;;;;;;24.21;41.70;94556.75;4976761;28;1084;-48
2022/04/25 07:33:02;;;;;;;;;;;;;;;24.48;40.12;94559.41;4977230;28;987;-55
2022/04/25 07:35:28;;;;;;;;;;;;;;;24.30;40.30;94559.81;4976699;28;1131;-49
2022/04/25 07:37:57;;;;;;;;;;;;;;;24.53;40.62;94556.75;4976201;28;1017;-49
2022/04/25 07:40:24;;;;;;;;;;;;;;;24.30;38.15;94555.19;4976172;28;1078;-49
2022/04/25 07:42:50;;;;;;;;;;;;;;;24.26;40.12;94551.31;4976669;28;1186;-49
2022/04/25 07:45:16;;;;;;;;;;;;;;;24.16;39.05;94543.06;4976664;28;1228;-48
2022/04/25 07:47:45;;;;;;;;;;;;;;;24.21;40.32;94543.09;4976850;28;1993;-49
2022/04/25 07:50:12;;;;;;;;;;;;;;;24.27;37.98;94542.03;4976888;28;1036;-48
2022/04/25 07:52:38;;;;;;;;;;;;;;;24.14;38.52;94543.31;4976731;28;1039;-47
2022/04/25 07:55:04;;;;;;;;;;;;;;;24.24;38.07;94542.56;4976596;28;1004;-48
2022/04/25 07:57:30;;;;;;;;;;;;;;;24.43;37.04;94544.88;4976266;28;1156;-48
2022/04/25 07:59:57;;;;;;;;;;;;;;;24.64;37.16;94546.69;4976364;28;1021;-47
2022/04/25 08:02:23;;;;;;;;;;;;;;;24.94;37.50;94546.03;4976460;28;923;-47
2022/04/25 08:04:49;;;;;;;;;;;;;;;25.08;36.16;94549.13;4976495;28;1016;-48
2022/04/25 08:07:16;;;;;;;;;;;;;;;25.05;34.49;94546.91;4976575;28;1988;-47
2022/04/25 08:09:43;;;;;;;;;;;;;;;25.17;35.93;94537.66;4976183;28;1095;-48
2022/04/25 08:20:24;;;;;;;;;;;;;;;25.52;31.41;94537.00;4975984;28;1116;-48
2022/04/25 08:22:50;;;;;;;;;;;;;;;25.57;30.38;94531.50;4976359;28;1009;-48
2022/04/25 08:25:17;;;;;;;;;;;;;;;25.52;29.83;94532.34;4972609;28;1171;-48
2022/04/25 08:27:43;;;;;;;;;;;;;;;25.61;30.28;94529.91;4956628;28;1992;-48
2022/04/25 08:30:11;;;;;;;;;;;;;;;25.76;31.41;94523.63;4956358;28;1102;-48
2022/04/25 08:32:38;;;;;;;;;;;;;;;25.92;30.53;94526.44;4956562;28;1071;-48
2022/04/25 08:35:04;;;;;;;;;;;;;;;26.09;29.54;94516.03;4963837;28;1270;-48
2022/04/25 08:37:30;;;;;;;;;;;;;;;26.14;29.74;94512.44;4975643;28;1087;-48
2022/04/25 08:39:56;;;;;;;;;;;;;;;26.31;29.72;94521.19;4975650;28;1048;-49
2022/04/25 08:42:22;;;;;;;;;;;;;;;26.38;29.29;94512.72;4975472;28;1025;-48
2022/04/25 08:44:55;;;;;;;;;;;;;;;26.39;29.89;94508.84;4957865;28;2857;-47
2022/04/25 08:47:22;;;;;;;;;;;;;;;26.41;28.65;94509.44;4956155;28;1914;-47
2022/04/25 08:49:48;;;;;;;;;;;;;;;26.44;29.46;94506.13;4955422;29;1028;-48
2022/04/25 08:52:14;;;;;;;;;;;;;;;26.39;27.79;94508.84;4954306;28;1042;-48
2022/04/25 08:54:42;;;;;;;;;;;;;;;26.47;28.64;94500.91;4953648;28;1023;-48
2022/04/25 08:57:09;;;;;;;;;;;;;;;26.59;27.86;94497.91;4954314;28;1143;-48
2022/04/25 08:59:37;;;;;;;;;;;;;;;26.81;28.56;94499.50;4953185;29;975;-48
2022/04/25 09:02:03;;;;;;;;;;;;;;;27.05;29.93;94497.78;4954363;28;922;-48
2022/04/25 09:04:29;;;;;;;;;;;;;;;27.09;29.15;94495.28;4954476;28;1008;-48
2022/04/25 09:06:55;;;;;;;;;;;;;;;27.18;27.91;94493.56;4955988;28;1989;-48
2022/04/25 09:09:22;;;;;;;;;;;;;;;27.22;28.42;94488.34;4955952;28;1068;-48
2022/04/25 09:14:32;;;;;;;;;;;;;;;27.36;28.24;94485.84;4956010;29;973;-48
2022/04/25 09:17:00;;;;;;;;;;;;;;;27.32;28.08;94493.00;4955663;28;916;-48
2022/04/25 09:19:27;;;;;;;;;;;;;;;27.32;28.82;94485.59;4955448;28;1001;-48
2022/04/25 09:21:53;;;;;;;;;;;;;;;27.36;28.43;94475.69;4954847;29;1683;-48
2022/04/25 09:24:20;;;;;;;;;;;;;;;27.36;28.00;94475.69;4954464;29;1080;-47
2022/04/25 09:26:47;;;;;;;;;;;;;;;27.44;26.87;94477.84;4970638;28;1976;-48
2022/04/25 09:29:13;;;;;;;;;;;;;;;27.42;26.79;94485.53;4974848;28;1080;-48
2022/04/25 09:31:46;;;;;;;;;;;;;;;27.11;28.14;94475.78;4973755;28;954;-48
2022/04/25 09:34:14;;;;;;;;;;;;;;;26.92;27.01;94476.44;4974960;28;981;-48
2022/04/25 09:36:47;;;;;;;;;;;;;;;27.07;27.47;94481.84;4973370;28;1014;-48
2022/04/25 09:39:27;;;;;;;;;;;;;;;27.16;26.67;94475.75;4974746;28;1056;-48
2022/04/25 09:41:53;;;;;;;;;;;;;;;26.81;27.81;94478.38;4974724;28;1031;-48
2022/04/25 09:44:19;;;;;;;;;;;;;;;26.91;26.57;94473.97;4973198;28;1092;-48
2022/04/25 09:46:47;;;;;;;;;;;;;;;27.28;27.22;94479.03;4974391;28;1919;-48
2022/04/25 09:49:18;;;;;;;;;;;;;;;27.28;24.80;94468.06;4974609;28;967;-48
2022/04/25 09:52:01;;;;;;;;;;;;;;;27.38;26.71;94465.25;4973630;28;1029;-48
2022/04/25 09:54:27;;;;;;;;;;;;;;;27.43;25.67;94465.22;4974777;28;1081;-48
2022/04/25 09:56:53;;;;;;;;;;;;;;;27.36;26.44;94461.97;4973029;28;920;-48
2022/04/25 09:59:21;;;;;;;;;;;;;;;27.34;25.74;94449.63;4974772;28;1008;-48
2022/04/25 10:02:04;;;;;;;;;;;;;;;27.40;24.46;94457.56;4974643;28;1077;-48
2022/04/25 10:04:34;;;;;;;;;;;;;;;27.29;25.93;94438.69;4974638;28;1031;-48
2022/04/25 10:07:01;;;;;;;;;;;;;;;27.31;26.01;94442.78;4974227;28;1989;-48
2022/04/25 10:09:29;;;;;;;;;;;;;;;26.87;26.77;94438.03;4974360;28;1008;-48
2022/04/25 10:11:57;;;;;;;;;;;;;;;26.81;27.01;94439.19;4989129;28;1113;-49
2022/04/25 10:14:25;;;;;;;;;;;;;;;26.88;25.92;94440.50;4973091;28;2567;-48
2022/04/25 10:16:54;;;;;;;;;;;;;;;26.88;26.16;94431.44;4989096;28;2724;-48
2022/04/25 10:19:21;;;;;;;;;;;;;;;27.05;26.84;94434.69;4989208;28;985;-48
2022/04/25 10:21:47;;;;;;;;;;;;;;;27.05;26.17;94440.16;4974249;28;1073;-48
2022/04/25 10:24:18;;;;;;;;;;;;;;;26.98;25.98;94428.66;4973493;28;1033;-48
2022/04/25 10:26:46;;;;;;;;;;;;;;;26.95;27.02;94431.97;4958834;28;1909;-47
2022/04/25 10:29:18;;;;;;;;;;;;;;;26.93;28.11;94430.63;4954785;28;1530;-48
2022/04/25 10:31:47;;;;;;;;;;;;;;;26.40;28.21;94434.59;4954950;29;1062;-48
2022/04/25 10:34:14;;;;;;;;;;;;;;;26.59;27.73;94442.22;4954914;28;1009;-53
2022/04/25 10:36:41;;;;;;;;;;;;;;;26.88;27.22;94440.50;4955178;28;1475;-51
2022/04/25 10:39:11;;;;;;;;;;;;;;;27.11;25.86;94434.63;4954793;29;1124;-49
2022/04/25 10:44:25;;;;;;;;;;;;;;;27.25;26.53;94428.28;4954611;28;1071;-55
2022/04/25 10:47:03;;;;;;;;;;;;;;;27.37;27.49;94438.09;4954817;29;1906;-54
2022/04/25 10:49:31;;;;;;;;;;;;;;;27.43;26.10;94432.28;4954705;28;985;-47
2022/04/25 10:51:58;;;;;;;;;;;;;;;27.41;25.88;94425.44;4955189;29;965;-49
2022/04/25 10:54:27;;;;;;;;;;;;;;;27.35;26.04;94427.38;4956520;28;996;-48
2022/04/25 10:57:19;;;;;;;;;;;;;;;27.52;26.27;94432.50;4958684;28;1038;-48
2022/04/25 10:59:45;;;;;;;;;;;;;;;27.57;25.28;94429.72;4955038;28;1806;-48
2022/04/25 11:02:22;;;;;;;;;;;;;;;27.33;25.31;94426.84;4958644;28;971;-48
2022/04/25 11:05:07;;;;;;;;;;;;;;;26.73;24.46;94429.59;4965886;28;1330;-48
2022/04/25 11:07:33;;;;;;;;;;;;;;;26.13;23.95;94431.38;4977139;28;1962;-49
2022/04/25 11:09:59;;;;;;;;;;;;;;;25.65;25.42;94428.88;4977549;28;988;-48
2022/04/25 11:12:52;;;;;;;;;;;;;;;25.43;25.69;94435.44;4977221;28;1299;-48
2022/04/25 11:15:41;;;;;;;;;;;;;;;25.54;25.46;94430.00;4976350;28;1887;-50
2022/04/25 11:18:43;;;;;;;;;;;;;;;25.79;25.15;94427.25;4974138;28;1703;-51
2022/04/25 11:21:11;;;;;;;;;;;;;;;25.63;24.72;94436.56;4977167;28;1906;-51
2022/04/25 11:23:43;;;;;;;;;;;;;;;25.62;25.21;94433.00;4977343;28;962;-51
2022/04/25 11:26:11;;;;;;;;;;;;;;;25.45;24.45;94435.19;4966416;28;2001;-49
2022/04/25 11:31:23;;;;;;;;;;;;;;;25.98;24.23;94433.03;4957981;29;1044;-49
2022/04/25 11:33:51;;;;;;;;;;;;;;;26.15;23.74;94440.16;4957625;28;1073;-48
2022/04/25 11:36:21;;;;;;;;;;;;;;;26.22;23.50;94441.50;4957909;28;1037;-49
2022/04/25 11:41:33;;;;;;;;;;;;;;;25.94;23.95;94442.91;4957740;28;1008;-48
2022/04/25 11:43:59;;;;;;;;;;;;;;;25.73;22.01;94439.31;4957500;28;1033;-48
2022/04/25 11:46:26;;;;;;;;;;;;;;;25.70;23.82;94442.59;4957690;28;1930;-48
2022/04/25 11:48:53;;;;;;;;;;;;;;;25.78;24.16;94433.84;4957459;28;1022;-48
2022/04/25 11:51:29;;;;;;;;;;;;;;;25.83;24.27;94424.78;4957384;28;916;-49
2022/04/25 11:54:04;;;;;;;;;;;;;;;25.85;22.99;94433.56;4957191;28;1050;-49
2022/04/25 11:56:32;;;;;;;;;;;;;;;25.83;23.17;94428.34;4957524;28;1017;-49
2022/04/25 11:58:58;;;;;;;;;;;;;;;25.93;23.61;94429.47;4957493;28;1062;-57
2022/04/25 12:01:38;;;;;;;;;;;;;;;26.01;23.93;94431.66;4957148;28;1041;-49
2022/04/25 12:04:17;;;;;;;;;;;;;;;26.06;23.72;94429.72;4957253;28;1077;-48
2022/04/25 12:06:49;;;;;;;;;;;;;;;26.13;23.95;94429.47;4955948;28;1986;-48
2022/04/25 12:17:42;;;;;;;;;;;;;;;25.99;23.60;94436.56;4956634;28;1857;-49
2022/04/25 12:20:09;;;;;;;;;;;;;;;25.89;23.26;94426.44;4956942;28;1012;-49
2022/04/25 12:22:36;;;;;;;;;;;;;;;25.91;23.44;94432.44;4956957;28;967;-48
2022/04/25 12:25:11;;;;;;;;;;;;;;;25.89;23.99;94429.97;4958316;28;1157;-49
2022/04/25 12:27:38;;;;;;;;;;;;;;;25.92;23.71;94425.09;4975772;28;1903;-50
2022/04/25 12:30:08;;;;;;;;;;;;;;;25.92;23.58;94427.84;4976058;28;1008;-53
2022/04/25 12:32:34;;;;;;;;;;;;;;;25.98;22.81;94435.78;4990970;28;1709;-52
2022/04/25 12:35:01;;;;;;;;;;;;;;;25.98;22.90;94429.47;4975806;28;1091;-50
2022/04/25 12:37:27;;;;;;;;;;;;;;;26.07;22.90;94431.38;4976078;28;1024;-50
2022/04/25 12:39:59;;;;;;;;;;;;;;;26.06;22.49;94432.47;4975845;28;1167;-50
2022/04/25 12:45:51;;;;;;;;;;;;;;;26.08;21.90;94432.19;4975643;28;1912;-49
2022/04/25 12:48:17;;;;;;;;;;;;;;;26.10;22.17;94428.09;4975341;28;1627;-52
2022/04/25 12:50:44;;;;;;;;;;;;;;;26.01;21.78;94431.66;4975497;28;1005;-50
2022/04/25 12:53:11;;;;;;;;;;;;;;;25.96;21.85;94426.19;4975822;28;1059;-51
2022/04/25 12:55:43;;;;;;;;;;;;;;;25.99;23.14;94421.00;4975471;28;983;-51
2022/04/25 12:58:10;;;;;;;;;;;;;;;26.10;22.62;94421.78;4975553;28;1080;-50
2022/04/25 13:00:44;;;;;;;;;;;;;;;26.06;23.22;94421.50;4974057;28;1111;-51
2022/04/25 13:03:12;;;;;;;;;;;;;;;26.02;23.66;94417.69;4975375;28;1534;-50
2022/04/25 13:05:38;;;;;;;;;;;;;;;25.98;22.65;94413.03;4975386;28;1044;-51
2022/04/25 13:08:04;;;;;;;;;;;;;;;25.92;23.22;94411.41;4975236;28;1905;-53
2022/04/25 13:10:32;;;;;;;;;;;;;;;25.92;22.68;94416.91;4975207;28;1556;-51
2022/04/25 13:13:00;;;;;;;;;;;;;;;25.86;22.44;94416.84;4974369;28;1738;-51
2022/04/25 13:15:31;;;;;;;;;;;;;;;25.83;23.21;94409.19;4973662;28;1632;-52
2022/04/25 13:18:01;;;;;;;;;;;;;;;25.77;22.23;94404.81;4972874;28;2605;-52
2022/04/25 13:20:31;;;;;;;;;;;;;;;25.78;23.14;94406.47;4973739;28;1565;-56
2022/04/25 13:23:01;;;;;;;;;;;;;;;25.78;23.10;94413.84;4973905;28;2441;-51
2022/04/25 13:25:28;;;;;;;;;;;;;;;25.78;23.13;94416.56;4974842;28;1196;-51
2022/04/25 13:27:54;;;;;;;;;;;;;;;25.79;22.93;94416.31;4973583;28;2010;-52
2022/04/25 13:30:21;;;;;;;;;;;;;;;25.71;23.03;94420.41;4974701;28;1035;-52
2022/04/25 13:32:48;;;;;;;;;;;;;;;25.66;23.76;94427.81;4973883;28;1588;-52
2022/04/25 13:35:15;;;;;;;;;;;;;;;25.62;23.47;94423.97;4974721;28;1665;-52
2022/04/25 13:37:42;;;;;;;;;;;;;;;25.57;23.13;94422.03;4973868;28;1414;-52
2022/04/25 13:40:09;;;;;;;;;;;;;;;25.50;23.04;94414.13;4974649;28;1024;-52
2022/04/25 13:42:38;;;;;;;;;;;;;;;25.66;23.93;94419.59;4973433;28;1715;-59
2022/04/25 13:45:05;;;;;;;;;;;;;;;25.74;22.83;94426.44;4974546;28;1038;-50
2022/04/25 13:47:32;;;;;;;;;;;;;;;25.75;23.00;94422.63;4974314;28;1903;-51
2022/04/25 13:49:58;;;;;;;;;;;;;;;25.78;23.23;94425.63;4973584;28;1672;-50
2022/04/25 13:52:24;;;;;;;;;;;;;;;25.84;23.14;94420.97;4962565;28;1578;-51
2022/04/25 13:54:51;;;;;;;;;;;;;;;25.89;22.97;94424.50;4964338;28;1951;-52
2022/04/25 13:57:17;;;;;;;;;;;;;;;25.92;23.42;94420.44;4965947;28;1328;-51